Meridian, MS (39305)

12:19 PM CDT en Agosto 23, 2014 (GMT -0500)
3.2 NW Meridian (Pine Springs Rd.) | Change Station
CLOSE
Current Station
Estación meteorológica personal
Location: Meridian, MS
Altura: 328 ft
Estaciones meteorológicas cercanas

Alt 328 ft 32.42 °N, 88.75 °W | Updated 4 minutes ago

Clear
Despejado
91.1 ° F
Sensación térmica 103 ° F
N
3.0
Viento Variable Viento desde NNO
Gusts 6.0 mph

Hoy
Alta -- | Baja -- ° F
--% Posibilidad de precipitaciones
Ayer
Alta -- | Baja -- ° F
Precip. -- pul
6:24 AM 7:30 PM
Creciente menguante, 3% visible
Presión 30.02 pul
Visibilidad 10.0 Millas
Nubes Despejado
Índice de calor 103 ° F
Punto de rocío 76 ° F
Humedad 61%
Precipitaciones 0.00 pul
Espesor de la nieve No disponible.
UV 10 de una escala de 12
Polen 8.90 de una escala de 12
Calidad del aire No disponible.
Flu Activity No disponible.
METAR KMEI 231658Z 35004KT 10SM CLR 34/21 A3003 RMK AO2 SLP165 T03390206

More Conditions Fewer Conditions

Presión 30.02 pul
Visibilidad 10.0 Millas
Nubes Despejado
Índice de calor 103 ° F
Punto de rocío 76 ° F
Humedad 61%
Precipitaciones 0.00 pul
Espesor de la nieve No disponible.
UV 10 de una escala de 12
Polen 8.90 de una escala de 12
Calidad del aire No disponible.
Flu Activity No disponible.
METAR KMEI 231658Z 35004KT 10SM CLR 34/21 A3003 RMK AO2 SLP165 T03390206

More Conditions Fewer Conditions

10-Day Weather Forecast

Almanac

Astronomía

Aug. 23, 2014 Salida Puesta
Hora real 6:24 AM CDT 7:30 PM CDT
Crepúsculo civil 5:58 AM CDT 7:55 PM CDT
Crepúsculo náutico 5:28 AM CDT 8:25 PM CDT
Crepúsculo astronómico 4:57 AM CDT 8:56 PM CDT
Luna 4:42 AM CDT 6:14 PM CDT
Horas de luz 13h 57m
Horas de luz
13h 06m
Tomorrow will be 1m 50s shorter.
Creciente menguante, 3% of the Moon is Illuminated
Hoy
Creciente menguante
Ago 25
Nueva
Sep 2
Cuarto creciente
Sep 8
Luna llena
Sep 15
Cuarto menguante

Extremos de hoy

Máximos del estado Bajos del estado

Community

WunderPhotos

Upload Photos

1,746,531 ¡fotos cargadas!

WunderBlogs® & News

By Dr. Jeff Masters
Director of Meteorology, Weather Underground
By Kari Strenfel
Meteorologist, Weather Underground
By Christopher C. Burt
Weather Historian, Weather Underground
August 23, 2014
August 23, 2014
August 23, 2014

Nearby

Grosos de nieve

Estación Profundido Altura
No tenemos constancia de nieve nueva.

Actividad de terremotos

Ciudad Distance Mag. Tiempo y dato
No hay informes recientes de la actividad sísmica.
Magnitud mínima muestra es 2,5.

Temperaturas de aguas costeras

Lugar Temperatura
Sin partes meteorológicos de las estaciones

Estaciones meteorológicas cercanas